Wetterdaten: Woche 16.11.09 - 22.11.09 (KW47)
Datum Zeit Temperatur Luftfeuchte Luftdruck Niederschlag Windrichtung Wind
16.11.2009 00:00 7,2 C 97 % 1013,7 hPa 0,8 l/m W-SW 0,4 km/h (0 Bft)
16.11.2009 01:00 7,2 C 97 % 1013,4 hPa 0,6 l/m N 0,1 km/h (0 Bft)
16.11.2009 02:00 7,0 C 97 % 1013,0 hPa 0,6 l/m W-SW 0,4 km/h (0 Bft)
16.11.2009 03:00 7,0 C 98 % 1012,5 hPa 1,2 l/m N 1,6 km/h (1 Bft)
16.11.2009 04:00 7,2 C 98 % 1012,6 hPa 1,8 l/m N 0,3 km/h (0 Bft)
16.11.2009 05:00 7,3 C 98 % 1012,6 hPa 2,0 l/m W-SW 2,3 km/h (1 Bft)
16.11.2009 06:00 7,4 C 98 % 1012,8 hPa 2,0 l/m SW 8,7 km/h (2 Bft)
16.11.2009 07:00 7,7 C 99 % 1013,0 hPa 1,4 l/m SW 15,7 km/h (3 Bft)
16.11.2009 08:00 8,0 C 99 % 1013,4 hPa 1,0 l/m SW 13,6 km/h (3 Bft)
16.11.2009 09:00 8,7 C 99 % 1013,4 hPa 0,8 l/m SW 21,2 km/h (4 Bft)
16.11.2009 10:00 9,5 C 99 % 1013,1 hPa 0,0 l/m SW 25,6 km/h (4 Bft)
16.11.2009 11:00 10,4 C 99 % 1013,0 hPa 0,0 l/m SW 20,9 km/h (4 Bft)
16.11.2009 12:00 11,4 C 97 % 1012,7 hPa 0,0 l/m W-SW 16,2 km/h (3 Bft)
16.11.2009 13:00 11,8 C 96 % 1012,2 hPa 0,2 l/m SW 12,1 km/h (2 Bft)
16.11.2009 14:00 11,7 C 95 % 1012,0 hPa 0,0 l/m SW 11,3 km/h (2 Bft)
16.11.2009 15:00 11,8 C 92 % 1012,1 hPa 0,0 l/m W-SW 15,6 km/h (3 Bft)
16.11.2009 16:00 11,8 C 91 % 1012,2 hPa 0,0 l/m W-SW 10,9 km/h (2 Bft)
16.11.2009 17:00 11,7 C 92 % 1012,4 hPa 0,0 l/m SW 10,6 km/h (2 Bft)
16.11.2009 18:00 11,7 C 92 % 1012,8 hPa 0,2 l/m SW 14,4 km/h (3 Bft)
16.11.2009 19:00 11,8 C 92 % 1012,9 hPa 0,2 l/m W-SW 16,8 km/h (3 Bft)
16.11.2009 20:00 12,0 C 91 % 1013,0 hPa 0,0 l/m SW 10,6 km/h (2 Bft)
16.11.2009 21:00 11,4 C 93 % 1013,1 hPa 0,0 l/m S 7,6 km/h (2 Bft)
16.11.2009 22:00 10,9 C 96 % 1013,2 hPa 0,0 l/m W-SW 9,5 km/h (2 Bft)
16.11.2009 23:00 10,7 C 94 % 1013,5 hPa 0,0 l/m N 2,0 km/h (1 Bft)
17.11.2009 00:00 9,5 C 95 % 1013,5 hPa 0,0 l/m S-SW 1,6 km/h (1 Bft)
17.11.2009 01:00 8,5 C 95 % 1013,5 hPa 0,0 l/m N 0,0 km/h (0 Bft)
17.11.2009 02:00 7,4 C 95 % 1013,4 hPa 0,0 l/m N 0,8 km/h (0 Bft)
17.11.2009 03:00 6,6 C 96 % 1013,3 hPa 0,0 l/m N 0,4 km/h (0 Bft)
17.11.2009 04:00 6,3 C 97 % 1013,4 hPa 0,0 l/m S-SW 1,9 km/h (1 Bft)
17.11.2009 05:00 6,0 C 98 % 1013,6 hPa 0,0 l/m N 0,5 km/h (0 Bft)
17.11.2009 06:00 5,9 C 98 % 1013,4 hPa 0,0 l/m N 1,5 km/h (1 Bft)
17.11.2009 07:00 5,1 C 98 % 1013,0 hPa 0,2 l/m S-SW 2,8 km/h (1 Bft)
17.11.2009 08:00 5,7 C 99 % 1013,0 hPa 0,0 l/m S 5,9 km/h (2 Bft)
17.11.2009 09:00 8,1 C 98 % 1013,0 hPa 0,0 l/m S-SW 11,7 km/h (2 Bft)
17.11.2009 10:00 11,7 C 81 % 1013,1 hPa 0,0 l/m S-SW 18,2 km/h (3 Bft)
17.11.2009 11:00 13,1 C 80 % 1012,9 hPa 0,0 l/m W-SW 14,6 km/h (3 Bft)
17.11.2009 12:00 14,1 C 80 % 1012,3 hPa 0,0 l/m SW 18,4 km/h (3 Bft)
17.11.2009 13:00 14,3 C 81 % 1011,5 hPa 0,0 l/m SW 16,1 km/h (3 Bft)
17.11.2009 14:00 13,6 C 83 % 1011,9 hPa 0,0 l/m S-SW 10,6 km/h (2 Bft)
17.11.2009 15:00 14,9 C 73 % 1011,5 hPa 0,0 l/m SW 16,9 km/h (3 Bft)
17.11.2009 16:00 12,7 C 83 % 1011,8 hPa 0,0 l/m SW 11,2 km/h (2 Bft)
17.11.2009 17:00 11,6 C 86 % 1012,4 hPa 0,0 l/m SW 10,3 km/h (2 Bft)
17.11.2009 18:00 10,8 C 89 % 1013,4 hPa 0,0 l/m W-SW 5,9 km/h (2 Bft)
17.11.2009 19:00 10,6 C 88 % 1014,6 hPa 0,0 l/m SW 8,9 km/h (2 Bft)
17.11.2009 20:00 10,3 C 91 % 1015,6 hPa 0,0 l/m SW 9,3 km/h (2 Bft)
17.11.2009 21:00 10,5 C 92 % 1016,6 hPa 0,0 l/m W-SW 12,0 km/h (2 Bft)
17.11.2009 22:00 11,6 C 91 % 1017,7 hPa 0,8 l/m W-NW 13,8 km/h (3 Bft)
17.11.2009 23:00 11,3 C 92 % 1018,8 hPa 1,0 l/m N-NW 7,9 km/h (2 Bft)
18.11.2009 00:00 10,2 C 93 % 1019,9 hPa 2,8 l/m N-NW 8,3 km/h (2 Bft)
18.11.2009 01:00 9,6 C 95 % 1020,5 hPa 0,4 l/m N 1,6 km/h (1 Bft)
18.11.2009 02:00 9,0 C 95 % 1021,1 hPa 0,2 l/m NO 3,6 km/h (1 Bft)
18.11.2009 03:00 8,4 C 95 % 1021,3 hPa 0,0 l/m N 0,8 km/h (0 Bft)
18.11.2009 04:00 8,0 C 95 % 1021,8 hPa 0,0 l/m N 0,0 km/h (0 Bft)
18.11.2009 05:00 7,6 C 96 % 1022,3 hPa 0,0 l/m NO 0,8 km/h (0 Bft)
18.11.2009 06:00 7,3 C 96 % 1022,4 hPa 0,0 l/m N 0,0 km/h (0 Bft)
18.11.2009 07:00 6,9 C 96 % 1022,7 hPa 0,0 l/m S-SW 2,1 km/h (1 Bft)
18.11.2009 08:00 6,7 C 97 % 1022,8 hPa 0,0 l/m S-SW 5,8 km/h (1 Bft)
18.11.2009 09:00 8,0 C 99 % 1022,9 hPa 0,0 l/m SW 15,0 km/h (3 Bft)
18.11.2009 10:00 9,3 C 96 % 1023,2 hPa 0,0 l/m W-SW 16,5 km/h (3 Bft)
18.11.2009 11:00 10,6 C 91 % 1023,0 hPa 0,0 l/m SW 10,2 km/h (2 Bft)
18.11.2009 12:00 11,3 C 88 % 1022,2 hPa 0,0 l/m SW 13,0 km/h (3 Bft)
18.11.2009 13:00 11,6 C 89 % 1022,0 hPa 0,0 l/m W-SW 9,0 km/h (2 Bft)
18.11.2009 14:00 11,9 C 84 % 1021,9 hPa 0,0 l/m W-SW 16,8 km/h (3 Bft)
18.11.2009 15:00 11,5 C 83 % 1022,0 hPa 0,0 l/m W-SW 20,2 km/h (4 Bft)
18.11.2009 16:00 10,5 C 86 % 1022,3 hPa 0,0 l/m W-SW 12,5 km/h (3 Bft)
18.11.2009 17:00 9,5 C 88 % 1022,7 hPa 0,0 l/m W-SW 12,5 km/h (3 Bft)
18.11.2009 18:00 9,0 C 89 % 1023,1 hPa 0,0 l/m W-SW 11,0 km/h (2 Bft)
18.11.2009 19:00 8,9 C 87 % 1023,7 hPa 0,0 l/m W 12,6 km/h (3 Bft)
18.11.2009 20:00 8,6 C 81 % 1024,0 hPa 0,0 l/m W 12,9 km/h (3 Bft)
18.11.2009 21:00 8,1 C 80 % 1024,4 hPa 0,0 l/m SW 7,1 km/h (2 Bft)
18.11.2009 22:00 6,2 C 88 % 1024,8 hPa 0,0 l/m SW 4,7 km/h (1 Bft)
18.11.2009 23:00 5,0 C 92 % 1025,2 hPa 0,0 l/m W-SW 4,0 km/h (1 Bft)
19.11.2009 00:00 4,6 C 95 % 1025,6 hPa 0,0 l/m N 1,1 km/h (0 Bft)
19.11.2009 01:00 4,0 C 96 % 1025,6 hPa 0,0 l/m S-SW 5,1 km/h (1 Bft)
19.11.2009 02:00 3,8 C 97 % 1025,6 hPa 0,0 l/m N 1,5 km/h (1 Bft)
19.11.2009 03:00 3,8 C 97 % 1025,5 hPa 0,2 l/m N 0,1 km/h (0 Bft)
19.11.2009 04:00 3,3 C 97 % 1025,7 hPa 0,0 l/m N 0,4 km/h (0 Bft)
19.11.2009 05:00 2,7 C 97 % 1025,8 hPa 0,0 l/m N 0,3 km/h (0 Bft)
19.11.2009 06:00 2,7 C 97 % 1025,8 hPa 0,0 l/m N 0,0 km/h (0 Bft)
19.11.2009 07:00 2,3 C 97 % 1025,8 hPa 0,0 l/m N 0,4 km/h (0 Bft)
19.11.2009 08:00 2,0 C 97 % 1026,0 hPa 0,0 l/m N 0,1 km/h (0 Bft)
19.11.2009 09:00 2,5 C 98 % 1025,9 hPa 0,0 l/m O-SO 1,7 km/h (1 Bft)
19.11.2009 10:00 5,0 C 99 % 1025,8 hPa 0,0 l/m O-SO 2,3 km/h (1 Bft)
19.11.2009 11:00 8,5 C 91 % 1025,5 hPa 0,0 l/m N-NO 4,1 km/h (1 Bft)
19.11.2009 12:00 10,2 C 87 % 1024,9 hPa 0,0 l/m N-NO 6,0 km/h (2 Bft)
19.11.2009 13:00 10,6 C 87 % 1024,7 hPa 0,0 l/m N 7,5 km/h (2 Bft)
19.11.2009 14:00 11,2 C 84 % 1024,4 hPa 0,0 l/m N-NW 3,6 km/h (1 Bft)
19.11.2009 15:00 11,4 C 84 % 1024,1 hPa 0,0 l/m N-NW 3,1 km/h (1 Bft)
19.11.2009 16:00 9,2 C 91 % 1024,3 hPa 0,0 l/m S-SW 2,8 km/h (1 Bft)
19.11.2009 17:00 7,3 C 95 % 1024,5 hPa 0,0 l/m S-SW 3,1 km/h (1 Bft)
19.11.2009 18:00 5,4 C 97 % 1025,0 hPa 0,0 l/m N 1,9 km/h (1 Bft)
19.11.2009 19:00 4,4 C 98 % 1025,2 hPa 0,0 l/m N 0,4 km/h (0 Bft)
19.11.2009 20:00 3,4 C 98 % 1025,6 hPa 0,0 l/m N 0,3 km/h (0 Bft)
19.11.2009 21:00 2,8 C 98 % 1025,6 hPa 0,0 l/m N 1,6 km/h (1 Bft)
19.11.2009 22:00 2,6 C 99 % 1025,5 hPa 0,0 l/m N 0,5 km/h (0 Bft)
19.11.2009 23:00 2,4 C 99 % 1025,4 hPa 0,0 l/m S-SW 0,8 km/h (0 Bft)
20.11.2009 00:00 2,3 C 99 % 1025,1 hPa 0,0 l/m N 0,1 km/h (0 Bft)
20.11.2009 01:00 2,2 C 99 % 1024,7 hPa 0,0 l/m N 0,1 km/h (0 Bft)
20.11.2009 02:00 2,2 C 99 % 1024,6 hPa 0,2 l/m N 0,5 km/h (0 Bft)
20.11.2009 03:00 2,1 C 98 % 1024,5 hPa 0,0 l/m N 0,1 km/h (0 Bft)
20.11.2009 04:00 1,9 C 99 % 1024,5 hPa 0,0 l/m N 0,1 km/h (0 Bft)
20.11.2009 05:00 1,7 C 98 % 1024,3 hPa 0,0 l/m N 0,5 km/h (0 Bft)
20.11.2009 06:00 2,0 C 99 % 1024,3 hPa 0,0 l/m N 0,1 km/h (0 Bft)
20.11.2009 07:00 1,9 C 99 % 1024,5 hPa 0,0 l/m N 0,0 km/h (0 Bft)
20.11.2009 08:00 2,1 C 99 % 1024,8 hPa 0,0 l/m S-SW 0,8 km/h (0 Bft)
20.11.2009 09:00 3,6 C 99 % 1025,4 hPa 0,0 l/m S-SW 3,6 km/h (1 Bft)
20.11.2009 10:00 5,9 C 96 % 1025,5 hPa 0,0 l/m SW 10,1 km/h (2 Bft)
20.11.2009 11:00 7,7 C 90 % 1025,4 hPa 0,0 l/m S 8,9 km/h (2 Bft)
20.11.2009 12:00 9,4 C 86 % 1025,1 hPa 0,0 l/m S-SW 9,8 km/h (2 Bft)
20.11.2009 13:00 10,7 C 83 % 1024,8 hPa 0,0 l/m S-SW 12,0 km/h (2 Bft)
20.11.2009 14:00 10,4 C 84 % 1024,8 hPa 0,0 l/m S-SW 12,4 km/h (3 Bft)
20.11.2009 15:00 10,7 C 83 % 1025,1 hPa 0,0 l/m S-SW 9,7 km/h (2 Bft)
20.11.2009 16:00 9,0 C 87 % 1025,6 hPa 0,0 l/m S-SW 10,8 km/h (2 Bft)
20.11.2009 17:00 7,2 C 93 % 1026,1 hPa 0,0 l/m S-SW 4,1 km/h (1 Bft)
20.11.2009 18:00 6,5 C 95 % 1026,7 hPa 0,0 l/m S-SW 2,4 km/h (1 Bft)
20.11.2009 19:00 5,2 C 96 % 1027,2 hPa 0,0 l/m N 0,4 km/h (0 Bft)
20.11.2009 20:00 4,3 C 96 % 1027,7 hPa 0,0 l/m S-SW 1,9 km/h (1 Bft)
20.11.2009 21:00 3,5 C 95 % 1028,2 hPa 0,0 l/m N 0,5 km/h (0 Bft)
20.11.2009 22:00 2,7 C 95 % 1028,4 hPa 0,0 l/m N 0,3 km/h (0 Bft)
20.11.2009 23:00 2,2 C 96 % 1028,3 hPa 0,0 l/m S-SW 2,9 km/h (1 Bft)
21.11.2009 00:00 1,9 C 97 % 1028,4 hPa 0,0 l/m N 0,3 km/h (0 Bft)
21.11.2009 01:00 1,3 C 96 % 1028,4 hPa 0,0 l/m N 0,7 km/h (0 Bft)
21.11.2009 02:00 0,9 C 96 % 1028,6 hPa 0,0 l/m N 0,5 km/h (0 Bft)
21.11.2009 03:00 1,1 C 97 % 1028,6 hPa 0,0 l/m N 0,3 km/h (0 Bft)
21.11.2009 04:00 1,3 C 97 % 1028,8 hPa 0,0 l/m N 0,0 km/h (0 Bft)
21.11.2009 05:00 1,5 C 98 % 1028,8 hPa 0,0 l/m NW 1,2 km/h (1 Bft)
21.11.2009 06:00 1,6 C 98 % 1028,9 hPa 0,0 l/m N 0,0 km/h (0 Bft)
21.11.2009 07:00 1,4 C 98 % 1029,1 hPa 0,0 l/m N 0,1 km/h (0 Bft)
21.11.2009 08:00 1,6 C 98 % 1029,2 hPa 0,0 l/m N 0,1 km/h (0 Bft)
21.11.2009 09:00 3,3 C 99 % 1029,1 hPa 0,0 l/m S 2,4 km/h (1 Bft)
21.11.2009 10:00 7,2 C 91 % 1028,9 hPa 0,0 l/m S-SW 3,3 km/h (1 Bft)
21.11.2009 11:00 10,3 C 79 % 1028,2 hPa 0,0 l/m S-SO 3,5 km/h (1 Bft)
21.11.2009 12:00 10,7 C 77 % 1027,2 hPa 0,0 l/m S-SO 2,0 km/h (1 Bft)
21.11.2009 13:00 12,6 C 64 % 1026,1 hPa 0,0 l/m S-SO 4,1 km/h (1 Bft)
21.11.2009 14:00 12,5 C 67 % 1025,2 hPa 0,0 l/m SW 1,6 km/h (1 Bft)
21.11.2009 15:00 11,6 C 77 % 1024,6 hPa 0,0 l/m SW 0,8 km/h (0 Bft)
21.11.2009 16:00 9,7 C 82 % 1024,2 hPa 0,0 l/m N-NW 2,7 km/h (1 Bft)
21.11.2009 17:00 8,2 C 86 % 1024,2 hPa 0,0 l/m N 0,4 km/h (0 Bft)
21.11.2009 18:00 7,8 C 87 % 1024,1 hPa 0,0 l/m N 0,3 km/h (0 Bft)
21.11.2009 19:00 7,1 C 91 % 1023,9 hPa 0,0 l/m N 2,1 km/h (1 Bft)
21.11.2009 20:00 6,3 C 92 % 1023,3 hPa 0,0 l/m S-SW 2,1 km/h (1 Bft)
21.11.2009 21:00 5,1 C 92 % 1023,0 hPa 0,0 l/m N 0,0 km/h (0 Bft)
21.11.2009 22:00 4,0 C 93 % 1022,0 hPa 0,0 l/m N 0,0 km/h (0 Bft)
21.11.2009 23:00 2,9 C 93 % 1021,2 hPa 0,0 l/m N 0,3 km/h (0 Bft)
22.11.2009 00:00 2,2 C 94 % 1020,6 hPa 0,0 l/m N 0,0 km/h (0 Bft)
22.11.2009 01:00 1,7 C 95 % 1019,7 hPa 0,0 l/m N 0,3 km/h (0 Bft)
22.11.2009 02:00 1,2 C 95 % 1019,2 hPa 0,0 l/m N 0,0 km/h (0 Bft)
22.11.2009 03:00 0,7 C 95 % 1018,7 hPa 0,0 l/m N 1,7 km/h (1 Bft)
22.11.2009 04:00 0,2 C 96 % 1018,7 hPa 0,0 l/m SW 2,8 km/h (1 Bft)
22.11.2009 05:00 0,5 C 97 % 1018,9 hPa 0,0 l/m S-SW 9,9 km/h (2 Bft)
22.11.2009 06:00 1,3 C 98 % 1019,3 hPa 0,0 l/m S-SO 14,8 km/h (3 Bft)
22.11.2009 07:00 2,1 C 98 % 1020,1 hPa 0,2 l/m SO 7,4 km/h (2 Bft)
22.11.2009 08:00 2,8 C 99 % 1021,0 hPa 0,0 l/m SO 8,6 km/h (2 Bft)
22.11.2009 09:00 3,7 C 99 % 1021,1 hPa 0,0 l/m S 10,5 km/h (2 Bft)
22.11.2009 10:00 6,9 C 96 % 1020,7 hPa 0,0 l/m SW 14,6 km/h (3 Bft)
22.11.2009 11:00 9,6 C 88 % 1020,2 hPa 0,0 l/m SW 15,4 km/h (3 Bft)
22.11.2009 12:00 9,7 C 89 % 1019,3 hPa 0,0 l/m S-SW 11,6 km/h (2 Bft)
22.11.2009 13:00 9,9 C 87 % 1018,4 hPa 0,0 l/m SW 10,9 km/h (2 Bft)
22.11.2009 14:00 10,1 C 86 % 1017,8 hPa 0,0 l/m SW 13,0 km/h (3 Bft)
22.11.2009 15:00 10,3 C 84 % 1018,0 hPa 0,0 l/m W-SW 14,6 km/h (3 Bft)
22.11.2009 16:00 9,8 C 87 % 1018,1 hPa 0,0 l/m SW 12,2 km/h (2 Bft)
22.11.2009 17:00 8,9 C 91 % 1018,2 hPa 0,0 l/m S-SW 16,5 km/h (3 Bft)
22.11.2009 18:00 8,9 C 90 % 1018,2 hPa 0,0 l/m SW 15,3 km/h (3 Bft)
22.11.2009 19:00 8,0 C 94 % 1018,2 hPa 0,0 l/m W-SW 16,9 km/h (3 Bft)
22.11.2009 20:00 8,0 C 95 % 1017,8 hPa 0,0 l/m SW 14,2 km/h (3 Bft)
22.11.2009 21:00 7,5 C 90 % 1017,4 hPa 0,0 l/m SW 17,4 km/h (3 Bft)
22.11.2009 22:00 7,3 C 85 % 1017,0 hPa 0,0 l/m SW 15,4 km/h (3 Bft)
22.11.2009 23:00 6,8 C 86 % 1016,6 hPa 0,0 l/m SW 12,1 km/h (2 Bft)
Min-Datum _ 22.11.09 21.11.09 17.11.09 - - 16.11.09
_ Min-Zeit 04:40 13:45 13:35 - - 00:05
Minimum _ 0,1 C 59 % 1011,2 hPa - - 0,0 km/h (0 Bft)
Max-Datum _ 17.11.09 16.11.09 21.11.09 18.11.09 - 16.11.09
_ Max-Zeit 15:15 10:15 08:20 00:20 - 10:25
Maximum _ 15,8 C 100 % 1029,3 hPa 2,8 l/m - 32,2 km/h
SW (5 Bft)
Durchschnitt _ 7,1 C 92 % 1020,8 hPa #18,8 l/m SW 6,4 km/h (2 Bft)